• Join FlightAware (Why Join?)
  • Login
  • US Flag 
08:30AM EST


 

Airport Tracker/Info


-or-


 

Live Flight TrackerFlight Track Log ✈ ASQ4252 ✈ 28-Sep-2013 ✈ KSDF - KCLE

Flight Track Log - Related Links

Times and Time Zones

All times are in EDT time to prevent confusion due to time zone crossing. See the ASQ4252 flight status page for this flight to view local times or setup timezone preferences in your user account.

Time Position Orientation Groundspeed Altitude Reporting Facility
EDT Latitude Longitude Course Direction KTS MPH feet Rate Location/Type
04:13PM 38.1167 -85.7167 North 190 219 3,600  Level Louisville TRACON
04:14PM 38.0744 -85.7414 205° Southwest 296 341 5,100 2,100 Climbing Indianapolis Center
04:15PM 38.3217 -85.9833 North  Level FlightAware Approximate
04:15PM 38.0689 -85.8319 266° West 258 297 8,000  Level Indianapolis Center
04:16PM 38.4160 -85.9833 North  Level FlightAware Approximate
04:16PM 38.1286 -85.8864 324° Northwest 293 337 10,300  Level Indianapolis Center
04:17PM 38.5101 -85.9863 355° North  Level FlightAware Approximate
04:17PM 38.2089 -85.8814 North 304 350 12,100  Level Indianapolis Center
04:18PM 38.6040 -85.9967 355° North  Level FlightAware Approximate
04:18PM 38.2769 -85.8008 43° Northeast 329 379 13,100  Level Indianapolis Center
04:19PM 38.7009 -86.0000 North  Level FlightAware Approximate
04:19PM 38.3650 -85.6944 43° Northeast 356 410 14,400  Level Indianapolis Center
04:21PM 38.4406 -85.5983 45° Northeast 377 434 15,500 1,140 Climbing Indianapolis Center
04:22PM 38.5169 -85.5031 44° Northeast 384 442 16,800 1,200 Climbing Indianapolis Center
04:23PM 38.5928 -85.4081 44° Northeast 382 440 18,000 1,080 Climbing Indianapolis Center
04:24PM 38.6625 -85.3206 44° Northeast 384 442 19,100 1,080 Climbing Indianapolis Center
04:25PM 38.7381 -85.2236 45° Northeast 386 444 20,300 1,320 Climbing Indianapolis Center
04:26PM 38.8314 -85.1058 44° Northeast 393 452 21,800 1,260 Climbing Indianapolis Center
04:27PM 38.9092 -85.0069 45° Northeast 395 455 22,900 540 Climbing Indianapolis Center
04:28PM 38.9897 -84.9044 45° Northeast 405 466 23,000  Climbing Indianapolis Center
04:29PM 39.0756 -84.7942 45° Northeast 431 496 23,000  Level Indianapolis Center
04:30PM 39.1642 -84.6803 45° Northeast 447 514 23,000  Level Indianapolis Center
04:31PM 39.2525 -84.5642 45° Northeast 455 524 23,000  Level Indianapolis Center
04:32PM 39.3414 -84.4497 45° Northeast 456 525 23,000  Level Indianapolis Center
04:33PM 39.4489 -84.3094 45° Northeast 459 528 23,000  Level Indianapolis Center
04:34PM 39.5375 -84.1928 45° Northeast 457 526 23,000  Level Indianapolis Center
04:35PM 39.6272 -84.0753 45° Northeast 458 527 23,000  Level Indianapolis Center
04:36PM 39.7178 -83.9647 43° Northeast 451 519 23,000  Level Indianapolis Center
04:37PM 39.8117 -83.8653 39° Northeast 440 506 23,000  Level Indianapolis Center
04:38PM 39.9042 -83.7658 39° Northeast 442 509 23,000  Level Indianapolis Center
04:39PM 40.0031 -83.6597 39° Northeast 451 519 23,000  Level Indianapolis Center
04:40PM 40.1017 -83.5531 40° Northeast 453 521 23,000  Level Indianapolis Center
04:41PM 40.1983 -83.4467 40° Northeast 451 519 23,000  Level Indianapolis Center
04:42PM 40.2903 -83.3347 43° Northeast 450 518 23,000 -420 Level Indianapolis Center
04:43PM 40.3975 -83.1983 44° Northeast 447 514 22,200 -1,320 Descending Indianapolis Center
04:44PM 40.4842 -83.0864 44° Northeast 439 505 20,400 -1,620 Descending Indianapolis Center
04:45PM 40.5708 -82.9742 45° Northeast 422 486 18,900 -1,680 Descending Indianapolis Center
04:46PM 40.6542 -82.8692 44° Northeast 413 475 17,000 -2,100 Descending Indianapolis Center
04:47PM 40.7350 -82.7628 45° Northeast 407 468 14,700 -2,340 Descending Indianapolis Center
04:48PM 40.8144 -82.6606 44° Northeast 397 457 12,300 -2,040 Descending Indianapolis Center
04:49PM 40.8889 -82.5597 46° Northeast 384 442 10,600 -1,380 Descending Indianapolis Center
04:50PM 40.9394 -82.4939 45° Northeast 380 437 10,000 -360 Descending Cleveland Center
04:51PM 41.0144 -82.3942 45° Northeast 379 436 10,000  Level Cleveland Center
04:52PM 41.0892 -82.2969 44° Northeast 374 430 10,000  Level Cleveland Center
04:53PM 41.1647 -82.1961 45° Northeast 379 436 10,000  Level Cleveland Center
04:54PM 41.2206 -82.1256 44° Northeast 376 433 10,000  Level Cleveland Center
04:54PM 41.2383 -82.0975 50° Northeast 373 429 10,000  Level Cleveland Center
04:55PM 41.2886 -82.0256 47° Northeast 363 418 10,000  Level Cleveland Center
04:55PM 41.2983 -81.9931 68° East 347 399 10,000 -900 Level Cleveland Center
04:56PM 41.3208 -81.9056 71° East 277 319 9,000 -1,200 Descending Cleveland Center
04:56PM 41.3233 -81.8906 77° East 291 335 8,800 -1,500 Descending Cleveland Center
04:57PM 41.3447 -81.8064 71° East 288 331 7,500 -1,620 Descending Cleveland Center
04:57PM 41.3506 -81.7889 66° East 286 329 7,200 -1,320 Descending Cleveland Center
04:58PM 41.3911 -81.7358 44° Northeast 282 325 6,300 -1,380 Descending Cleveland Center
04:58PM 41.4050 -81.7122 52° Northeast 279 321 5,800 -1,200 Descending Cleveland Center
04:59PM 41.4439 -81.6633 43° Northeast 264 304 5,100 -900 Descending Cleveland Center
04:59PM 41.4575 -81.6444 46° Northeast 262 302 4,900 -600 Descending Cleveland Center
05:00PM 41.4931 -81.6547 348° North 209 241 4,600 -900 Descending Cleveland Center
05:00PM 41.5075 -81.6733 316° Northwest 223 257 4,000 -1,320 Descending Cleveland Center
05:01PM 41.5000 -81.7172 257° West 193 222 3,300 -1,260 Descending Cleveland Center
05:01PM 41.4786 -81.7450 224° Southwest 202 232 2,700 -1,020 Descending Cleveland Center
05:02PM 41.4658 -81.7703 236° Southwest 185 213 2,300 -780 Descending Cleveland Center
05:02PM 41.4497 -81.7900 223° Southwest 172 198 1,900 -720 Descending Cleveland Center
05:03PM 41.4414 -81.8081 238° Southwest 132 152 1,600 -720 Descending Cleveland Center
05:03PM 41.4258 -81.8297 226° Southwest 146 168 1,200 -540 Descending Cleveland Center
05:04PM 41.3992 -81.8692 228° Southwest 142 163 800 -420 Descending Cleveland Center